PRG weather

Václav Havel Airport Prague
Prague, Prague (capital city), Czechia

Public forecast

Using degrees Celsius for public forecast. Weather courtesy of forecast.io.

METAR (pilot weather report)

Retrieved 2017/10/22 10:30 UTC (16 minutes ago):

LKPR 221030Z 23014KT 9999 SCT020 11/07 Q1015 NOSIG

TAF (pilot weather forecast)

Retrieved 2017/10/22 06:36 UTC (4 hours ago):

TAF LKPR 220500Z 2206/2312 25013KT 9999 -RA BKN030 BECMG 2206/2209 9999 SCT040 BECMG 2212/2214 23007KT BECMG 2306/2308 28010KT TEMPO 2218/2312 9999 -RA BKN023